Time;durP1;ratioP1;P1;durP2;ratioP2;P2;SDS_P1;SDS_P2;PMS_P1;PMS_P2;Temp;Humidity;BMP_temperature;BMP_pressure;BME280_temperature;BME280_humidity;BME280_pressure;Samples;Min_cycle;Max_cycle;Signal;HPM_P1;HPM_P2
2023/06/09 00:01:25;;;;;;;7.82;5.80;;;;;;;;;;5035592;28;20059;-80
2023/06/09 00:03:55;;;;;;;6.32;4.78;;;;;;;;;;5037762;28;20357;-81
2023/06/09 00:06:22;;;;;;;10.00;5.78;;;;;;;;;;5028025;28;20325;-79
2023/06/09 00:08:51;;;;;;;7.10;5.28;;;;;;;;;;5030419;28;20091;-83
2023/06/09 00:11:17;;;;;;;6.82;5.22;;;;;;;;;;5036900;28;20025;-82
2023/06/09 00:13:42;;;;;;;7.85;5.28;;;;;;;;;;5047148;28;20034;-80
2023/06/09 00:16:07;;;;;;;7.95;5.55;;;;;;;;;;5052502;28;20025;-80
2023/06/09 00:18:34;;;;;;;7.28;4.90;;;;;;;;;;5040312;28;20121;-81
2023/06/09 00:21:00;;;;;;;7.95;5.38;;;;;;;;;;5029864;28;20026;-81
2023/06/09 00:23:28;;;;;;;8.10;5.30;;;;;;;;;;5032338;28;20073;-79
2023/06/09 00:25:54;;;;;;;7.97;5.22;;;;;;;;;;5023979;28;20017;-81
2023/06/09 00:28:19;;;;;;;8.60;5.90;;;;;;;;;;5045296;28;20059;-80
2023/06/09 00:42:43;;;;;;;6.65;4.97;;;;;;;;;;5384040;23;20043;-88
2023/06/09 00:49:50;;;;;;;7.10;5.30;;;;;;;;;;5001163;28;20030;-84
2023/06/09 00:53:02;;;;;;;5.88;4.45;;;;;;;;;;4995075;28;20073;-85
2023/06/09 00:56:34;;;;;;;;;;;;;;;;;;;;;
2023/06/09 00:59:01;;;;;;;7.40;5.55;;;;;;;;;;5031399;23;20500;-79
2023/06/09 01:01:28;;;;;;;6.47;4.65;;;;;;;;;;4994956;28;20206;-79
2023/06/09 01:03:54;;;;;;;8.93;4.55;;;;;;;;;;4988106;28;20031;-81
2023/06/09 01:06:43;;;;;;;6.03;4.60;;;;;;;;;;4980552;28;20035;-80
2023/06/09 01:09:38;;;;;;;6.43;4.93;;;;;;;;;;4963250;28;20059;-80
2023/06/09 01:12:12;;;;;;;8.45;5.22;;;;;;;;;;4973447;28;20391;-80
2023/06/09 01:14:47;;;;;;;5.90;4.68;;;;;;;;;;4962083;28;20023;-81
2023/06/09 01:17:18;;;;;;;10.35;5.30;;;;;;;;;;4974987;28;20027;-80
2023/06/09 01:19:51;;;;;;;8.07;4.93;;;;;;;;;;4979773;28;20023;-80
2023/06/09 01:22:16;;;;;;;6.03;4.35;;;;;;;;;;4972266;28;20058;-80
2023/06/09 01:25:04;;;;;;;7.35;4.93;;;;;;;;;;4921537;28;20078;-79
2023/06/09 01:27:33;;;;;;;7.45;5.13;;;;;;;;;;4961688;28;20038;-80
2023/06/09 01:29:59;;;;;;;10.43;5.60;;;;;;;;;;4969448;28;20035;-80
2023/06/09 01:32:26;;;;;;;7.40;5.63;;;;;;;;;;4968665;28;20047;-80
2023/06/09 01:34:53;;;;;;;7.38;5.28;;;;;;;;;;4980971;28;20035;-81
2023/06/09 01:37:18;;;;;;;7.38;5.43;;;;;;;;;;4971364;28;20031;-81
2023/06/09 01:39:46;;;;;;;7.28;5.10;;;;;;;;;;4978034;28;20035;-80
2023/06/09 01:42:11;;;;;;;8.43;5.40;;;;;;;;;;4975661;28;20034;-79
2023/06/09 01:44:37;;;;;;;9.45;5.32;;;;;;;;;;4985512;28;20508;-79
2023/06/09 01:47:03;;;;;;;7.80;5.50;;;;;;;;;;4998045;28;20031;-80
2023/06/09 01:49:54;;;;;;;7.55;5.28;;;;;;;;;;4984444;28;20339;-80
2023/06/09 01:52:29;;;;;;;6.32;5.03;;;;;;;;;;4968559;28;20027;-79
2023/06/09 01:55:00;;;;;;;9.32;5.60;;;;;;;;;;4979989;28;20018;-79
2023/06/09 01:57:50;;;;;;;9.27;5.75;;;;;;;;;;4979562;28;20106;-79
2023/06/09 02:00:16;;;;;;;8.23;5.45;;;;;;;;;;4972793;28;20018;-80
2023/06/09 02:02:45;;;;;;;7.85;5.72;;;;;;;;;;4977992;28;20070;-79
2023/06/09 02:05:11;;;;;;;9.52;5.50;;;;;;;;;;4981999;28;20418;-80
2023/06/09 02:07:39;;;;;;;6.63;5.28;;;;;;;;;;4958517;28;20042;-80
2023/06/09 02:10:05;;;;;;;8.45;5.70;;;;;;;;;;4972165;28;20038;-79
2023/06/09 02:12:34;;;;;;;7.53;5.47;;;;;;;;;;4964742;28;20098;-80
2023/06/09 02:15:00;;;;;;;6.95;5.20;;;;;;;;;;4965047;28;20018;-79
2023/06/09 02:17:29;;;;;;;7.97;5.65;;;;;;;;;;4980367;28;20030;-79
2023/06/09 02:19:55;;;;;;;8.70;5.30;;;;;;;;;;4979068;28;20105;-79
2023/06/09 02:22:20;;;;;;;7.05;5.45;;;;;;;;;;4975313;28;20094;-80
2023/06/09 02:24:45;;;;;;;7.68;5.03;;;;;;;;;;4978016;28;20026;-79
2023/06/09 02:27:10;;;;;;;8.68;6.05;;;;;;;;;;4980660;28;20027;-79
2023/06/09 02:29:36;;;;;;;8.18;5.65;;;;;;;;;;4979187;28;20035;-79
2023/06/09 02:32:01;;;;;;;8.60;5.80;;;;;;;;;;4967105;28;20034;-78
2023/06/09 02:34:29;;;;;;;8.23;5.90;;;;;;;;;;4972589;28;20023;-78
2023/06/09 02:36:55;;;;;;;11.65;5.95;;;;;;;;;;4977602;28;20034;-80
2023/06/09 02:39:21;;;;;;;7.28;5.78;;;;;;;;;;4980920;28;20023;-79
2023/06/09 02:41:47;;;;;;;8.27;5.47;;;;;;;;;;4973354;28;20038;-78
2023/06/09 02:44:13;;;;;;;9.07;5.88;;;;;;;;;;4980025;28;20026;-79
2023/06/09 02:46:40;;;;;;;7.65;5.53;;;;;;;;;;4958057;28;20018;-77
2023/06/09 02:49:06;;;;;;;8.02;5.50;;;;;;;;;;4973429;28;20015;-78
2023/06/09 02:51:31;;;;;;;8.35;6.00;;;;;;;;;;4992590;28;20046;-77
2023/06/09 02:53:56;;;;;;;6.95;5.15;;;;;;;;;;4967026;28;20126;-79
2023/06/09 02:56:22;;;;;;;8.38;5.40;;;;;;;;;;4981003;28;20050;-79
2023/06/09 02:58:48;;;;;;;6.68;5.78;;;;;;;;;;4956545;28;20038;-80
2023/06/09 03:01:17;;;;;;;6.68;5.40;;;;;;;;;;4974715;28;20026;-79
2023/06/09 03:03:43;;;;;;;7.40;5.20;;;;;;;;;;4983390;28;20026;-78
2023/06/09 03:06:09;;;;;;;8.75;5.72;;;;;;;;;;4969742;28;20055;-79
2023/06/09 03:08:34;;;;;;;7.38;5.03;;;;;;;;;;4974353;28;20053;-80
2023/06/09 03:10:59;;;;;;;9.32;6.00;;;;;;;;;;4973449;28;20023;-80
2023/06/09 03:13:24;;;;;;;9.75;5.93;;;;;;;;;;4973882;28;20555;-79
2023/06/09 03:15:50;;;;;;;8.77;6.35;;;;;;;;;;4959541;28;20114;-79
2023/06/09 03:18:16;;;;;;;12.48;7.00;;;;;;;;;;4980969;28;20065;-79
2023/06/09 03:20:42;;;;;;;10.82;6.05;;;;;;;;;;4979573;28;20477;-79
2023/06/09 03:23:08;;;;;;;8.65;6.00;;;;;;;;;;4933557;28;20039;-78
2023/06/09 03:25:34;;;;;;;9.73;6.60;;;;;;;;;;4968255;28;20034;-79
2023/06/09 03:28:00;;;;;;;8.98;6.45;;;;;;;;;;4971537;28;20170;-80
2023/06/09 03:30:26;;;;;;;8.23;6.05;;;;;;;;;;4971887;28;20098;-80
2023/06/09 03:32:51;;;;;;;9.07;6.25;;;;;;;;;;4977286;28;20527;-80
2023/06/09 03:35:17;;;;;;;12.18;6.32;;;;;;;;;;4965870;28;20023;-80
2023/06/09 03:37:42;;;;;;;8.52;6.00;;;;;;;;;;4968729;28;20497;-79
2023/06/09 03:40:10;;;;;;;8.68;6.55;;;;;;;;;;4960476;28;20386;-78
2023/06/09 03:42:35;;;;;;;9.27;6.18;;;;;;;;;;4964339;28;20031;-80
2023/06/09 03:45:01;;;;;;;10.75;5.97;;;;;;;;;;4970668;28;20030;-79
2023/06/09 03:47:26;;;;;;;11.38;6.97;;;;;;;;;;4971335;28;20386;-79
2023/06/09 03:49:51;;;;;;;9.00;5.95;;;;;;;;;;4973581;28;20041;-80
2023/06/09 03:52:17;;;;;;;8.00;6.35;;;;;;;;;;4986554;28;20022;-79
2023/06/09 03:54:43;;;;;;;9.85;6.45;;;;;;;;;;4972133;28;20173;-81
2023/06/09 03:57:08;;;;;;;11.10;6.82;;;;;;;;;;4960274;28;20082;-79
2023/06/09 03:59:34;;;;;;;9.57;6.82;;;;;;;;;;4983691;28;20054;-79
2023/06/09 04:01:59;;;;;;;10.18;6.70;;;;;;;;;;4970794;28;20018;-80
2023/06/09 04:04:25;;;;;;;8.68;6.45;;;;;;;;;;4964488;28;20054;-80
2023/06/09 04:06:50;;;;;;;10.88;7.13;;;;;;;;;;4970194;28;20031;-80
2023/06/09 04:09:16;;;;;;;11.18;6.25;;;;;;;;;;4966516;28;20027;-80
2023/06/09 04:11:41;;;;;;;9.32;7.28;;;;;;;;;;4968015;28;20027;-80
2023/06/09 04:14:08;;;;;;;9.93;6.70;;;;;;;;;;4975248;28;20019;-80
2023/06/09 04:16:33;;;;;;;10.98;7.57;;;;;;;;;;4962986;28;20098;-79
2023/06/09 04:18:58;;;;;;;10.45;7.45;;;;;;;;;;4968146;28;20429;-80
2023/06/09 04:21:24;;;;;;;11.45;7.82;;;;;;;;;;4975116;28;20444;-79
2023/06/09 04:23:49;;;;;;;10.48;7.13;;;;;;;;;;4983404;28;20105;-80
2023/06/09 04:26:15;;;;;;;14.40;6.93;;;;;;;;;;4972039;28;20026;-80
2023/06/09 04:28:41;;;;;;;13.10;7.75;;;;;;;;;;4953051;28;20461;-80
2023/06/09 04:31:08;;;;;;;13.32;7.07;;;;;;;;;;4965228;28;20327;-80
2023/06/09 04:33:37;;;;;;;9.90;7.32;;;;;;;;;;4965526;28;20034;-78
2023/06/09 04:36:03;;;;;;;9.30;6.57;;;;;;;;;;4963314;28;20027;-79
2023/06/09 04:38:32;;;;;;;10.27;7.18;;;;;;;;;;4972998;28;20110;-80
2023/06/09 04:41:01;;;;;;;9.65;6.93;;;;;;;;;;4962342;28;20102;-79
2023/06/09 04:43:27;;;;;;;11.27;7.22;;;;;;;;;;4978628;28;20018;-79
2023/06/09 04:45:55;;;;;;;13.27;7.30;;;;;;;;;;4967537;28;20037;-80
2023/06/09 04:48:21;;;;;;;9.10;7.43;;;;;;;;;;4952985;28;20098;-80
2023/06/09 04:50:47;;;;;;;11.35;7.68;;;;;;;;;;4972719;28;20034;-80
2023/06/09 04:53:15;;;;;;;8.80;7.30;;;;;;;;;;4965678;28;20106;-80
2023/06/09 04:55:40;;;;;;;10.38;7.60;;;;;;;;;;4949279;28;20019;-80
2023/06/09 04:58:06;;;;;;;11.40;8.48;;;;;;;;;;4959040;28;20050;-80
2023/06/09 05:00:31;;;;;;;9.52;7.57;;;;;;;;;;4979684;28;20026;-80
2023/06/09 05:02:57;;;;;;;11.15;7.43;;;;;;;;;;4966910;28;20688;-79
2023/06/09 05:05:23;;;;;;;9.93;7.53;;;;;;;;;;4960065;28;20026;-79
2023/06/09 05:07:49;;;;;;;12.07;8.07;;;;;;;;;;4979127;28;20026;-80
2023/06/09 05:10:15;;;;;;;13.05;7.18;;;;;;;;;;4979953;28;20033;-79
2023/06/09 05:12:40;;;;;;;9.90;7.65;;;;;;;;;;4987648;28;20022;-79
2023/06/09 05:15:06;;;;;;;11.52;8.10;;;;;;;;;;4970453;28;20103;-80
2023/06/09 05:17:33;;;;;;;14.10;7.90;;;;;;;;;;4978007;28;20038;-80
2023/06/09 05:19:59;;;;;;;9.20;7.57;;;;;;;;;;4978370;28;20087;-80
2023/06/09 05:22:24;;;;;;;12.85;8.02;;;;;;;;;;4956028;28;20026;-78
2023/06/09 05:24:50;;;;;;;11.43;8.85;;;;;;;;;;4989301;28;20042;-78
2023/06/09 05:27:15;;;;;;;12.80;8.63;;;;;;;;;;4961215;28;20403;-80
2023/06/09 05:29:41;;;;;;;14.52;8.50;;;;;;;;;;4964561;28;20041;-80
2023/06/09 05:32:07;;;;;;;12.48;8.65;;;;;;;;;;4983618;28;20015;-78
2023/06/09 05:34:32;;;;;;;11.32;8.55;;;;;;;;;;4993815;28;20030;-77
2023/06/09 05:36:58;;;;;;;12.13;8.55;;;;;;;;;;4998543;28;20064;-78
2023/06/09 05:39:23;;;;;;;12.30;8.45;;;;;;;;;;4997076;28;20054;-79
2023/06/09 05:41:49;;;;;;;12.68;8.35;;;;;;;;;;4990515;28;20391;-78
2023/06/09 05:44:15;;;;;;;11.73;8.48;;;;;;;;;;4973228;28;20080;-79
2023/06/09 05:46:41;;;;;;;12.10;8.80;;;;;;;;;;4973617;28;20055;-79
2023/06/09 05:49:06;;;;;;;10.70;8.38;;;;;;;;;;4973767;28;20023;-79
2023/06/09 05:51:36;;;;;;;11.75;8.65;;;;;;;;;;4990259;28;20042;-79
2023/06/09 05:54:02;;;;;;;12.25;8.55;;;;;;;;;;4980128;28;20035;-80
2023/06/09 05:56:27;;;;;;;24.05;8.40;;;;;;;;;;4965921;28;20086;-80
2023/06/09 05:58:54;;;;;;;8.90;7.13;;;;;;;;;;4982566;28;20033;-80
2023/06/09 06:01:20;;;;;;;9.90;7.85;;;;;;;;;;4995303;28;20018;-80
2023/06/09 06:03:46;;;;;;;10.98;8.13;;;;;;;;;;4999384;28;20030;-79
2023/06/09 06:06:12;;;;;;;11.30;7.80;;;;;;;;;;4985824;28;20030;-81
2023/06/09 06:08:40;;;;;;;15.07;7.72;;;;;;;;;;4959128;28;20035;-80
2023/06/09 06:11:05;;;;;;;13.23;7.72;;;;;;;;;;4985397;28;20030;-79
2023/06/09 06:13:31;;;;;;;11.35;7.43;;;;;;;;;;4985285;28;20058;-80
2023/06/09 06:15:59;;;;;;;12.73;7.13;;;;;;;;;;4973371;28;20047;-79
2023/06/09 06:18:38;;;;;;;10.75;6.80;;;;;;;;;;4974458;28;20011;-80
2023/06/09 06:21:03;;;;;;;10.98;7.97;;;;;;;;;;4978492;28;20027;-81
2023/06/09 06:23:29;;;;;;;9.18;7.10;;;;;;;;;;4992986;28;20019;-79
2023/06/09 06:25:54;;;;;;;10.35;7.28;;;;;;;;;;4986613;28;20054;-78
2023/06/09 06:28:20;;;;;;;10.85;7.38;;;;;;;;;;4978447;28;20035;-78
2023/06/09 06:30:46;;;;;;;9.73;6.85;;;;;;;;;;4989425;28;20037;-78
2023/06/09 06:33:12;;;;;;;7.57;6.00;;;;;;;;;;4972056;28;20015;-78
2023/06/09 06:35:37;;;;;;;7.70;5.75;;;;;;;;;;4976837;28;20038;-78
2023/06/09 06:38:03;;;;;;;7.22;5.20;;;;;;;;;;4981938;28;20029;-80
2023/06/09 06:40:33;;;;;;;7.60;5.82;;;;;;;;;;4979691;28;20114;-80
2023/06/09 06:43:02;;;;;;;9.88;5.32;;;;;;;;;;4972471;28;20037;-78
2023/06/09 06:45:28;;;;;;;7.43;4.63;;;;;;;;;;4976677;28;20027;-79
2023/06/09 06:48:01;;;;;;;8.77;4.95;;;;;;;;;;4996589;28;20046;-78
2023/06/09 06:50:27;;;;;;;6.05;5.07;;;;;;;;;;4964850;28;20109;-79
2023/06/09 06:52:52;;;;;;;7.53;4.50;;;;;;;;;;4962503;28;20027;-80
2023/06/09 06:55:17;;;;;;;6.45;4.97;;;;;;;;;;4991255;28;20401;-80
2023/06/09 06:57:43;;;;;;;7.20;4.93;;;;;;;;;;4974974;28;20022;-79
2023/06/09 07:00:12;;;;;;;7.45;4.72;;;;;;;;;;4979260;28;20029;-79
2023/06/09 07:02:38;;;;;;;9.07;4.90;;;;;;;;;;4985824;28;20314;-80
2023/06/09 07:05:03;;;;;;;8.75;5.60;;;;;;;;;;4967203;28;20027;-79
2023/06/09 07:07:29;;;;;;;5.57;4.85;;;;;;;;;;4973175;28;20019;-80
2023/06/09 07:09:54;;;;;;;8.70;5.32;;;;;;;;;;4984265;28;20050;-80
2023/06/09 07:12:21;;;;;;;9.43;4.95;;;;;;;;;;4954262;28;20465;-80
2023/06/09 07:14:46;;;;;;;5.32;4.20;;;;;;;;;;4977519;28;20087;-79
2023/06/09 07:17:12;;;;;;;7.28;4.32;;;;;;;;;;4945064;28;20046;-80
2023/06/09 07:19:37;;;;;;;7.72;4.22;;;;;;;;;;4957522;28;20102;-80
2023/06/09 07:22:03;;;;;;;5.40;4.07;;;;;;;;;;4977624;28;20105;-80
2023/06/09 07:24:28;;;;;;;5.03;4.25;;;;;;;;;;4972226;28;20031;-81
2023/06/09 07:26:53;;;;;;;4.55;3.40;;;;;;;;;;4959349;28;20031;-81
2023/06/09 07:29:19;;;;;;;5.88;4.28;;;;;;;;;;4972227;28;20130;-79
2023/06/09 07:31:44;;;;;;;5.25;3.78;;;;;;;;;;4958216;28;20023;-80
2023/06/09 07:34:10;;;;;;;5.15;3.92;;;;;;;;;;4975288;28;20041;-81
2023/06/09 07:36:37;;;;;;;4.57;3.67;;;;;;;;;;4970091;28;20035;-80
2023/06/09 07:39:03;;;;;;;5.00;4.10;;;;;;;;;;4967754;28;20023;-80
2023/06/09 07:41:30;;;;;;;5.50;4.00;;;;;;;;;;4961230;28;20019;-80
2023/06/09 07:43:56;;;;;;;6.47;3.72;;;;;;;;;;4959740;28;20058;-81
2023/06/09 07:46:22;;;;;;;6.85;3.63;;;;;;;;;;4967969;28;20033;-80
2023/06/09 07:48:47;;;;;;;4.72;3.47;;;;;;;;;;4961035;28;20031;-80
2023/06/09 07:51:14;;;;;;;5.45;3.72;;;;;;;;;;4943604;28;20024;-81
2023/06/09 07:53:39;;;;;;;4.65;3.78;;;;;;;;;;4980527;28;20492;-79
2023/06/09 07:56:04;;;;;;;4.47;3.10;;;;;;;;;;4974813;28;20027;-79
2023/06/09 07:58:30;;;;;;;5.78;4.03;;;;;;;;;;4970160;28;20031;-79
2023/06/09 08:00:55;;;;;;;5.70;4.05;;;;;;;;;;4964562;28;20090;-80
2023/06/09 08:03:21;;;;;;;7.35;4.05;;;;;;;;;;4950133;28;20377;-80
2023/06/09 08:05:46;;;;;;;3.95;3.20;;;;;;;;;;4968356;28;20065;-80
2023/06/09 08:08:12;;;;;;;7.78;3.60;;;;;;;;;;4958087;28;20106;-80
2023/06/09 08:10:37;;;;;;;5.07;3.75;;;;;;;;;;4957416;28;20027;-79
2023/06/09 08:13:02;;;;;;;5.07;3.72;;;;;;;;;;4979011;28;20019;-80
2023/06/09 08:15:28;;;;;;;5.35;3.70;;;;;;;;;;4975833;28;20418;-79
2023/06/09 08:17:53;;;;;;;4.25;3.28;;;;;;;;;;4965604;28;20023;-81
2023/06/09 08:20:18;;;;;;;4.93;3.15;;;;;;;;;;4965904;28;20030;-80
2023/06/09 08:22:44;;;;;;;5.07;3.22;;;;;;;;;;4960836;28;20027;-80
2023/06/09 08:25:10;;;;;;;3.65;3.15;;;;;;;;;;4954403;28;20031;-81
2023/06/09 08:27:36;;;;;;;4.70;3.40;;;;;;;;;;4975146;28;20047;-79
2023/06/09 08:30:03;;;;;;;3.25;2.88;;;;;;;;;;4952191;28;20089;-80
2023/06/09 08:32:28;;;;;;;3.83;2.95;;;;;;;;;;4976985;28;20046;-80
2023/06/09 08:34:54;;;;;;;4.18;3.00;;;;;;;;;;4973399;28;20035;-81
2023/06/09 08:37:19;;;;;;;4.38;3.50;;;;;;;;;;4977278;28;20030;-80
2023/06/09 08:39:47;;;;;;;5.22;3.17;;;;;;;;;;4971646;28;20418;-81
2023/06/09 08:42:23;;;;;;;5.10;3.25;;;;;;;;;;4972353;28;20027;-82
2023/06/09 08:44:50;;;;;;;5.85;3.30;;;;;;;;;;4977376;28;20055;-81
2023/06/09 08:47:20;;;;;;;3.53;2.95;;;;;;;;;;4955476;28;20062;-79
2023/06/09 08:49:47;;;;;;;4.68;3.17;;;;;;;;;;4967261;28;20022;-81
2023/06/09 08:52:13;;;;;;;3.55;2.95;;;;;;;;;;4975163;28;20334;-80
2023/06/09 08:54:40;;;;;;;11.07;3.10;;;;;;;;;;4969392;28;20030;-81
2023/06/09 08:57:06;;;;;;;3.25;2.80;;;;;;;;;;4967869;28;20027;-81
2023/06/09 08:59:34;;;;;;;6.03;3.00;;;;;;;;;;4979244;28;20184;-81
2023/06/09 09:02:01;;;;;;;5.60;2.83;;;;;;;;;;4979341;28;20026;-81
2023/06/09 09:04:27;;;;;;;3.15;2.65;;;;;;;;;;4968521;28;20019;-81
2023/06/09 09:06:53;;;;;;;5.05;3.25;;;;;;;;;;4987974;28;20037;-81
2023/06/09 09:09:18;;;;;;;3.92;3.00;;;;;;;;;;4981539;28;20431;-81
2023/06/09 09:11:45;;;;;;;3.78;3.03;;;;;;;;;;4979330;28;20473;-80
2023/06/09 09:14:11;;;;;;;3.00;2.67;;;;;;;;;;4971138;28;20065;-80
2023/06/09 09:16:36;;;;;;;7.72;2.60;;;;;;;;;;4982824;28;20045;-80
2023/06/09 09:19:03;;;;;;;3.53;2.67;;;;;;;;;;4971491;28;20022;-80
2023/06/09 09:21:29;;;;;;;3.08;2.10;;;;;;;;;;4962915;28;20034;-81
2023/06/09 09:23:59;;;;;;;2.40;2.15;;;;;;;;;;4970250;28;20101;-79
2023/06/09 09:26:29;;;;;;;3.92;2.40;;;;;;;;;;4988624;28;20029;-81
2023/06/09 09:28:56;;;;;;;2.38;2.17;;;;;;;;;;4980981;28;20030;-80
2023/06/09 09:31:29;;;;;;;3.42;2.20;;;;;;;;;;4977494;28;20029;-78
2023/06/09 09:33:54;;;;;;;2.40;2.20;;;;;;;;;;4975178;28;20027;-78
2023/06/09 09:36:20;;;;;;;3.53;2.42;;;;;;;;;;4986549;28;20026;-80
2023/06/09 09:38:45;;;;;;;3.50;2.13;;;;;;;;;;4985585;28;20042;-78
2023/06/09 09:41:14;;;;;;;2.78;2.38;;;;;;;;;;4972997;28;20027;-80
2023/06/09 09:43:40;;;;;;;3.78;2.30;;;;;;;;;;4972586;28;20404;-80
2023/06/09 09:46:07;;;;;;;5.47;2.35;;;;;;;;;;4981794;28;20023;-80
2023/06/09 09:48:35;;;;;;;3.78;2.80;;;;;;;;;;4982120;28;20035;-80
2023/06/09 09:51:00;;;;;;;3.15;2.40;;;;;;;;;;4964544;28;20019;-78
2023/06/09 09:53:26;;;;;;;3.92;2.55;;;;;;;;;;4963064;28;20058;-79
2023/06/09 09:55:54;;;;;;;2.45;2.15;;;;;;;;;;4968110;28;20078;-80
2023/06/09 09:58:26;;;;;;;2.42;2.15;;;;;;;;;;4962590;28;20114;-81
2023/06/09 10:00:57;;;;;;;2.97;2.38;;;;;;;;;;4962212;28;20037;-80
2023/06/09 10:03:23;;;;;;;2.60;2.40;;;;;;;;;;4970022;28;20019;-80
2023/06/09 10:05:49;;;;;;;2.40;2.17;;;;;;;;;;4978195;28;20130;-80
2023/06/09 10:08:27;;;;;;;5.20;2.55;;;;;;;;;;4978882;28;20037;-80
2023/06/09 10:10:56;;;;;;;2.25;2.08;;;;;;;;;;4987770;28;20030;-78
2023/06/09 10:13:22;;;;;;;4.00;2.78;;;;;;;;;;4977258;28;20019;-78
2023/06/09 10:15:51;;;;;;;2.40;2.20;;;;;;;;;;4988640;28;20023;-78
2023/06/09 10:18:16;;;;;;;5.07;2.67;;;;;;;;;;4976317;28;20024;-79
2023/06/09 10:20:43;;;;;;;4.30;2.30;;;;;;;;;;4980808;28;20378;-80
2023/06/09 10:23:09;;;;;;;2.35;2.15;;;;;;;;;;4977013;28;20030;-81
2023/06/09 10:25:35;;;;;;;3.17;2.50;;;;;;;;;;4964192;28;20055;-81
2023/06/09 10:28:00;;;;;;;4.05;2.20;;;;;;;;;;4962721;28;20106;-78
2023/06/09 10:30:26;;;;;;;3.90;2.13;;;;;;;;;;4985510;28;20022;-79
2023/06/09 10:33:05;;;;;;;2.42;2.22;;;;;;;;;;4970922;28;20030;-78
2023/06/09 10:35:34;;;;;;;2.30;2.00;;;;;;;;;;4978701;28;20082;-79
2023/06/09 10:38:30;;;;;;;2.58;2.38;;;;;;;;;;4978235;28;20041;-80
2023/06/09 10:41:27;;;;;;;3.90;2.22;;;;;;;;;;4976320;28;20103;-80
2023/06/09 10:43:59;;;;;;;3.55;2.92;;;;;;;;;;4959882;28;20030;-80
2023/06/09 10:46:44;;;;;;;2.80;2.35;;;;;;;;;;4974180;28;20019;-80
2023/06/09 10:49:35;;;;;;;4.82;2.70;;;;;;;;;;4970322;28;20027;-80
2023/06/09 10:52:01;;;;;;;2.80;2.13;;;;;;;;;;4977448;28;20023;-80
2023/06/09 10:54:28;;;;;;;2.00;1.75;;;;;;;;;;4981734;28;20021;-81
2023/06/09 10:56:55;;;;;;;3.65;2.15;;;;;;;;;;4970243;28;20022;-80
2023/06/09 10:59:24;;;;;;;3.40;2.72;;;;;;;;;;4976830;28;20030;-79
2023/06/09 11:02:05;;;;;;;2.65;2.30;;;;;;;;;;4976131;28;20034;-80
2023/06/09 11:04:45;;;;;;;3.10;2.35;;;;;;;;;;4984357;28;20046;-80
2023/06/09 11:07:13;;;;;;;3.42;2.47;;;;;;;;;;4968557;28;20047;-80
2023/06/09 11:09:39;;;;;;;3.30;2.30;;;;;;;;;;4971300;28;20678;-80
2023/06/09 11:12:05;;;;;;;2.00;1.88;;;;;;;;;;4972049;28;20030;-79
2023/06/09 11:14:46;;;;;;;2.13;2.00;;;;;;;;;;4977216;28;20034;-80
2023/06/09 11:17:19;;;;;;;3.83;2.33;;;;;;;;;;4971243;28;20058;-79
2023/06/09 11:19:45;;;;;;;3.10;2.42;;;;;;;;;;4973452;28;20490;-80
2023/06/09 11:22:11;;;;;;;3.22;2.22;;;;;;;;;;4969844;28;20037;-78
2023/06/09 11:24:50;;;;;;;2.38;2.17;;;;;;;;;;4975224;28;20035;-78
2023/06/09 11:27:21;;;;;;;2.35;1.95;;;;;;;;;;4967569;28;20045;-79
2023/06/09 11:30:05;;;;;;;3.22;2.33;;;;;;;;;;4973575;28;20030;-79
2023/06/09 11:32:44;;;;;;;2.28;2.03;;;;;;;;;;4973014;28;20118;-80
2023/06/09 11:35:40;;;;;;;2.35;2.00;;;;;;;;;;4966835;28;20038;-79
2023/06/09 11:38:11;;;;;;;2.22;2.03;;;;;;;;;;4970904;28;20046;-79
2023/06/09 11:40:37;;;;;;;2.22;1.67;;;;;;;;;;4959092;28;20062;-80
2023/06/09 11:43:07;;;;;;;2.80;2.15;;;;;;;;;;4976452;28;20070;-79
2023/06/09 11:45:35;;;;;;;2.35;1.90;;;;;;;;;;4971342;28;20501;-80
2023/06/09 11:48:02;;;;;;;4.07;2.60;;;;;;;;;;4972868;28;20042;-78
2023/06/09 11:50:47;;;;;;;2.55;1.70;;;;;;;;;;4980793;28;20019;-79
2023/06/09 11:53:18;;;;;;;4.82;1.88;;;;;;;;;;4974623;28;20023;-79
2023/06/09 11:55:45;;;;;;;3.53;1.90;;;;;;;;;;4975750;28;20430;-81
2023/06/09 11:58:12;;;;;;;2.03;1.80;;;;;;;;;;4970872;28;20023;-80
2023/06/09 12:00:39;;;;;;;2.40;2.20;;;;;;;;;;4973485;28;20020;-80
2023/06/09 12:03:05;;;;;;;2.10;1.90;;;;;;;;;;4976753;28;20042;-80
2023/06/09 12:05:31;;;;;;;5.32;2.40;;;;;;;;;;4977000;28;20085;-79
2023/06/09 12:07:56;;;;;;;2.67;2.20;;;;;;;;;;4977898;28;20033;-80
2023/06/09 12:10:26;;;;;;;5.00;2.05;;;;;;;;;;4978746;28;20018;-81
2023/06/09 12:12:53;;;;;;;2.42;2.20;;;;;;;;;;4970000;28;20102;-80
2023/06/09 12:15:23;;;;;;;2.10;1.83;;;;;;;;;;4976884;28;20038;-80
2023/06/09 12:17:52;;;;;;;3.55;2.17;;;;;;;;;;4978642;28;20414;-79
2023/06/09 12:20:35;;;;;;;2.70;1.90;;;;;;;;;;4953752;28;20038;-79
2023/06/09 12:23:13;;;;;;;2.03;1.92;;;;;;;;;;4983806;28;20064;-79
2023/06/09 12:25:41;;;;;;;3.40;2.00;;;;;;;;;;4977166;28;20079;-77
2023/06/09 12:28:16;;;;;;;3.08;1.98;;;;;;;;;;4979328;28;20031;-79
2023/06/09 12:30:50;;;;;;;3.72;2.45;;;;;;;;;;4955608;28;20381;-81
2023/06/09 12:33:20;;;;;;;2.28;1.85;;;;;;;;;;4974373;28;20031;-80
2023/06/09 12:35:47;;;;;;;3.92;2.15;;;;;;;;;;4977743;28;20030;-80
2023/06/09 12:38:16;;;;;;;3.03;2.30;;;;;;;;;;4983762;28;20022;-81
2023/06/09 12:40:51;;;;;;;2.13;1.92;;;;;;;;;;4981115;28;20035;-80
2023/06/09 12:43:21;;;;;;;2.55;2.00;;;;;;;;;;4984014;28;20086;-78
2023/06/09 12:45:48;;;;;;;3.17;1.95;;;;;;;;;;4977275;28;20035;-79
2023/06/09 12:48:14;;;;;;;3.03;2.10;;;;;;;;;;4982978;28;20025;-77
2023/06/09 12:50:40;;;;;;;2.50;2.10;;;;;;;;;;4981056;28;20047;-81
2023/06/09 12:53:10;;;;;;;2.90;1.90;;;;;;;;;;4991063;28;20023;-77
2023/06/09 12:55:37;;;;;;;2.53;1.98;;;;;;;;;;4990537;28;20025;-80
2023/06/09 12:58:07;;;;;;;6.50;2.25;;;;;;;;;;4988288;28;20026;-76
2023/06/09 13:00:33;;;;;;;4.22;2.20;;;;;;;;;;4986284;28;20037;-74
2023/06/09 13:02:59;;;;;;;3.63;1.88;;;;;;;;;;4973274;28;20030;-76
2023/06/09 13:05:30;;;;;;;2.42;2.10;;;;;;;;;;4975971;28;20007;-78
2023/06/09 13:08:00;;;;;;;2.72;2.17;;;;;;;;;;4975378;28;20027;-76
2023/06/09 13:10:26;;;;;;;3.38;1.98;;;;;;;;;;4987750;28;20869;-79
2023/06/09 13:12:52;;;;;;;2.10;1.90;;;;;;;;;;4970017;28;20054;-82
2023/06/09 13:15:19;;;;;;;3.33;2.28;;;;;;;;;;4983946;28;20023;-78
2023/06/09 13:17:45;;;;;;;2.22;1.88;;;;;;;;;;4962742;28;20031;-78
2023/06/09 13:20:11;;;;;;;4.30;1.80;;;;;;;;;;4988180;28;20034;-79
2023/06/09 13:22:37;;;;;;;4.10;2.00;;;;;;;;;;4975483;28;20478;-79
2023/06/09 13:25:02;;;;;;;5.30;2.60;;;;;;;;;;4979600;28;20034;-79
2023/06/09 13:27:28;;;;;;;3.03;2.15;;;;;;;;;;4971274;28;20058;-78
2023/06/09 13:29:53;;;;;;;2.53;2.33;;;;;;;;;;4956453;28;20035;-79
2023/06/09 13:32:18;;;;;;;3.33;2.08;;;;;;;;;;4973691;28;20082;-78
2023/06/09 13:34:44;;;;;;;1.95;1.83;;;;;;;;;;4985614;28;20038;-78
2023/06/09 13:37:10;;;;;;;4.13;2.42;;;;;;;;;;4980770;28;20054;-79
2023/06/09 13:39:35;;;;;;;3.08;2.20;;;;;;;;;;4982051;28;20030;-80
2023/06/09 13:42:01;;;;;;;3.03;2.30;;;;;;;;;;4984752;28;20038;-81
2023/06/09 13:44:26;;;;;;;2.17;1.98;;;;;;;;;;5001371;28;20037;-78
2023/06/09 13:46:52;;;;;;;2.80;2.10;;;;;;;;;;4983233;28;20027;-76
2023/06/09 13:49:18;;;;;;;3.42;1.83;;;;;;;;;;4982730;28;20053;-79
2023/06/09 13:51:45;;;;;;;2.33;1.90;;;;;;;;;;4974031;28;20027;-80
2023/06/09 13:54:10;;;;;;;3.17;1.95;;;;;;;;;;4986081;28;20030;-78
2023/06/09 13:56:37;;;;;;;2.85;2.00;;;;;;;;;;4991729;28;20061;-79
2023/06/09 13:59:03;;;;;;;2.25;1.95;;;;;;;;;;4963030;28;20082;-78
2023/06/09 14:01:28;;;;;;;2.78;1.92;;;;;;;;;;4968689;28;20029;-79
2023/06/09 14:03:54;;;;;;;4.15;1.80;;;;;;;;;;4976625;28;20031;-80
2023/06/09 14:06:19;;;;;;;2.75;2.08;;;;;;;;;;4994894;28;20031;-79
2023/06/09 14:08:45;;;;;;;3.33;1.90;;;;;;;;;;4992077;28;20019;-81
2023/06/09 14:13:38;;;;;;;2.50;2.10;;;;;;;;;;5044712;28;20076;-78
2023/06/09 14:16:04;;;;;;;2.80;2.00;;;;;;;;;;5022637;28;20077;-78
2023/06/09 14:18:29;;;;;;;3.67;2.00;;;;;;;;;;5006039;28;20029;-80
2023/06/09 14:20:55;;;;;;;2.28;2.08;;;;;;;;;;5029363;28;20070;-79
2023/06/09 14:23:21;;;;;;;2.10;1.90;;;;;;;;;;5017016;28;20093;-79
2023/06/09 14:25:49;;;;;;;2.15;2.00;;;;;;;;;;4997952;28;20034;-78
2023/06/09 14:28:15;;;;;;;2.65;2.20;;;;;;;;;;5018525;28;20021;-78
2023/06/09 14:30:40;;;;;;;2.95;2.38;;;;;;;;;;5004399;28;20026;-78
2023/06/09 14:33:06;;;;;;;3.20;2.22;;;;;;;;;;4994518;28;20392;-79
2023/06/09 14:35:31;;;;;;;2.55;1.80;;;;;;;;;;5011422;28;20030;-81
2023/06/09 14:37:59;;;;;;;3.63;1.85;;;;;;;;;;5018426;28;20034;-80
2023/06/09 14:40:29;;;;;;;3.28;2.00;;;;;;;;;;5019017;28;20046;-79
2023/06/09 14:42:55;;;;;;;4.20;2.28;;;;;;;;;;5012816;28;20464;-81
2023/06/09 14:45:22;;;;;;;3.20;2.00;;;;;;;;;;5015206;28;20033;-79
2023/06/09 14:47:59;;;;;;;1.98;1.80;;;;;;;;;;5011182;28;20041;-79
2023/06/09 14:50:33;;;;;;;2.03;1.70;;;;;;;;;;5012083;28;20019;-80
2023/06/09 14:53:01;;;;;;;2.33;1.85;;;;;;;;;;5004833;28;20010;-78
2023/06/09 14:55:31;;;;;;;3.10;2.00;;;;;;;;;;5017466;28;20037;-80
2023/06/09 14:57:59;;;;;;;2.78;2.22;;;;;;;;;;4992985;28;20037;-80
2023/06/09 15:00:26;;;;;;;3.53;2.30;;;;;;;;;;5012931;28;20033;-79
2023/06/09 15:02:56;;;;;;;5.60;2.47;;;;;;;;;;5009057;28;20033;-81
2023/06/09 15:05:24;;;;;;;3.63;2.45;;;;;;;;;;5035376;28;20014;-78